Mackinaw City, MI (49701)

7:59 AM EDT on May 24, 2017 (GMT -0400)
MMACM4 | | Change Station
Active Advisory: Special Statement

Elev 580 ft 45.78 °N, 84.73 °W | Updated 73 days ago

Light Rain
Light Rain
16.0 °F
Feels Like 4 °F
N
10.0
Wind Variable Wind from NNW
Gusts 13.0 mph

Today
High -- | Low -- °F
--% Chance of Precip.
Yesterday
High -- | Low -- °F
Precip. -- in
Pressure 29.74 in
Visibility 7.0 miles
Clouds Scattered Clouds 200 ft
Mostly Cloudy 5000 ft
Overcast 6500 ft
Windchill 4 °F
Dew Point Not available.
Humidity Not available.
Rainfall in
Snow Depth Not available.
5:58 AM 9:14 PM
Waning Crescent, 3% visible
METAR KMCD 241155Z AUTO 07009G15KT 7SM -RA SCT002 BKN050 OVC065 09/09 A2974 RMK AO2 P0003 60018 70018 T00910091 10095 20084
Pressure 29.74 in
Visibility 7.0 miles
Clouds Scattered Clouds 200 ft
Mostly Cloudy 5000 ft
Overcast 6500 ft
Windchill 4 °F
Dew Point Not available.
Humidity Not available.
Rainfall in
Snow Depth Not available.
5:58 AM 9:14 PM
Waning Crescent, 3% visible
METAR KMCD 241155Z AUTO 07009G15KT 7SM -RA SCT002 BKN050 OVC065 09/09 A2974 RMK AO2 P0003 60018 70018 T00910091 10095 20084

Get Your Daily Forecast Email!

Thanks for signing up!

Be on the lookout for a verification email in your inbox.

You'll start receiving severe weather alerts in your inbox..

×

10-Day Weather Forecast

Almanac

Astronomy

May. 24, 2017 Rise Set
Actual Time
Civil Twilight
Nautical Twilight
Astronomical Twilight
Moon
Length of Visible Light
Length of Day
Tomorrow will be .
, % of the Moon is Illuminated

Today's Extremes

State Highs State Lows

Community

WunderPhotos

Category 6

Welcome to Category 6. This is the collective home for Weather Underground's featured writeups by Dr. Jeff Masters (right), Bob Henson (left), Chris Burt, and other regular contributors.

Nearby

Air Quality

  Air Quality AQ Index Pollutant
Not available.

Snow Depth

Station Depth Elevation

Earthquake Activity

City Distance Mag. Time & Date
Minimum magnitude displayed is 2.5.

Coastal Water Temperatures

Place Temperature

Stations

Nearby Weather Stations

Station Location Temp. Windchill Dew Point Humidity Wind Precip. Elev Updated Type
                   

Watches & Warnings

Special Statement
Issued: 6:25 AM EDT May. 24, 2017 – National Weather Service

... Patchy dense fog this morning...

Patchy dense fog will be found across the region this morning... reducing
visibilities to one quarter mile or less in spots. When traveling
this morning... slow down... use caution and allow extra time to
reach your destination.